sensor_id;sensor_type;location;lat;lon;timestamp;temperature;humidity
48579;DHT22;34357;51.948;6.132;2023-03-23T00:02:30;11.30;89.50
48579;DHT22;34357;51.948;6.132;2023-03-23T00:05:04;11.30;89.40
48579;DHT22;34357;51.948;6.132;2023-03-23T00:07:32;11.30;89.30
48579;DHT22;34357;51.948;6.132;2023-03-23T00:09:58;11.30;89.50
48579;DHT22;34357;51.948;6.132;2023-03-23T00:12:30;11.30;89.30
48579;DHT22;34357;51.948;6.132;2023-03-23T00:15:07;11.30;89.20
48579;DHT22;34357;51.948;6.132;2023-03-23T00:17:34;11.40;88.90
48579;DHT22;34357;51.948;6.132;2023-03-23T00:20:01;11.30;89.00
48579;DHT22;34357;51.948;6.132;2023-03-23T00:22:29;11.40;88.90
48579;DHT22;34357;51.948;6.132;2023-03-23T00:24:55;11.30;89.10
48579;DHT22;34357;51.948;6.132;2023-03-23T00:27:21;11.30;89.10
48579;DHT22;34357;51.948;6.132;2023-03-23T00:29:51;11.30;89.00
48579;DHT22;34357;51.948;6.132;2023-03-23T00:32:22;11.30;89.10
48579;DHT22;34357;51.948;6.132;2023-03-23T00:34:56;11.30;89.00
48579;DHT22;34357;51.948;6.132;2023-03-23T00:37:25;11.40;88.80
48579;DHT22;34357;51.948;6.132;2023-03-23T00:39:51;11.40;88.40
48579;DHT22;34357;51.948;6.132;2023-03-23T00:42:17;11.40;88.20
48579;DHT22;34357;51.948;6.132;2023-03-23T00:44:43;11.40;88.40
48579;DHT22;34357;51.948;6.132;2023-03-23T00:47:10;11.40;88.70
48579;DHT22;34357;51.948;6.132;2023-03-23T00:49:37;11.40;88.40
48579;DHT22;34357;51.948;6.132;2023-03-23T00:52:05;11.40;88.50
48579;DHT22;34357;51.948;6.132;2023-03-23T00:54:32;11.40;88.60
48579;DHT22;34357;51.948;6.132;2023-03-23T00:56:59;11.40;88.40
48579;DHT22;34357;51.948;6.132;2023-03-23T00:59:24;11.50;88.30
48579;DHT22;34357;51.948;6.132;2023-03-23T01:01:51;11.40;88.20
48579;DHT22;34357;51.948;6.132;2023-03-23T01:04:17;11.50;87.90
48579;DHT22;34357;51.948;6.132;2023-03-23T01:06:44;11.50;87.90
48579;DHT22;34357;51.948;6.132;2023-03-23T01:09:14;11.40;88.20
48579;DHT22;34357;51.948;6.132;2023-03-23T01:11:45;11.50;88.10
48579;DHT22;34357;51.948;6.132;2023-03-23T01:14:13;11.40;88.10
48579;DHT22;34357;51.948;6.132;2023-03-23T01:16:41;11.40;88.30
48579;DHT22;34357;51.948;6.132;2023-03-23T01:19:07;11.40;88.30
48579;DHT22;34357;51.948;6.132;2023-03-23T01:21:32;11.40;88.30
48579;DHT22;34357;51.948;6.132;2023-03-23T01:23:58;11.60;88.00
48579;DHT22;34357;51.948;6.132;2023-03-23T01:26:26;11.50;88.00
48579;DHT22;34357;51.948;6.132;2023-03-23T01:28:53;11.50;88.00
48579;DHT22;34357;51.948;6.132;2023-03-23T01:31:21;11.50;88.20
48579;DHT22;34357;51.948;6.132;2023-03-23T01:33:48;11.50;88.40
48579;DHT22;34357;51.948;6.132;2023-03-23T01:36:27;11.40;88.70
48579;DHT22;34357;51.948;6.132;2023-03-23T01:38:57;11.40;89.20
48579;DHT22;34357;51.948;6.132;2023-03-23T01:41:24;11.30;89.30
48579;DHT22;34357;51.948;6.132;2023-03-23T01:46:45;11.30;89.50
48579;DHT22;34357;51.948;6.132;2023-03-23T01:49:15;11.30;89.60
48579;DHT22;34357;51.948;6.132;2023-03-23T01:51:46;11.30;89.20
48579;DHT22;34357;51.948;6.132;2023-03-23T01:54:15;11.30;89.20
48579;DHT22;34357;51.948;6.132;2023-03-23T01:57:10;11.30;88.90
48579;DHT22;34357;51.948;6.132;2023-03-23T01:59:35;11.40;89.00
48579;DHT22;34357;51.948;6.132;2023-03-23T02:02:24;11.40;88.70
48579;DHT22;34357;51.948;6.132;2023-03-23T02:04:51;11.40;88.50
48579;DHT22;34357;51.948;6.132;2023-03-23T02:07:21;11.40;88.50
48579;DHT22;34357;51.948;6.132;2023-03-23T02:09:50;11.40;88.70
48579;DHT22;34357;51.948;6.132;2023-03-23T02:12:16;11.40;88.70
48579;DHT22;34357;51.948;6.132;2023-03-23T02:14:42;11.40;88.60
48579;DHT22;34357;51.948;6.132;2023-03-23T02:34:17;11.40;89.00
48579;DHT22;34357;51.948;6.132;2023-03-23T02:36:52;11.50;88.70
48579;DHT22;34357;51.948;6.132;2023-03-23T02:39:21;11.50;88.90
48579;DHT22;34357;51.948;6.132;2023-03-23T02:41:52;11.50;88.80
48579;DHT22;34357;51.948;6.132;2023-03-23T02:44:22;11.40;89.00
48579;DHT22;34357;51.948;6.132;2023-03-23T02:46:49;11.50;88.50
48579;DHT22;34357;51.948;6.132;2023-03-23T02:49:16;11.60;88.50
48579;DHT22;34357;51.948;6.132;2023-03-23T02:51:45;11.60;88.30
48579;DHT22;34357;51.948;6.132;2023-03-23T02:54:12;11.60;88.50
48579;DHT22;34357;51.948;6.132;2023-03-23T02:56:39;11.60;88.30
48579;DHT22;34357;51.948;6.132;2023-03-23T02:59:13;11.60;88.30
48579;DHT22;34357;51.948;6.132;2023-03-23T03:04:11;11.60;88.10
48579;DHT22;34357;51.948;6.132;2023-03-23T03:09:30;11.60;87.80
48579;DHT22;34357;51.948;6.132;2023-03-23T03:12:04;11.70;87.50
48579;DHT22;34357;51.948;6.132;2023-03-23T03:14:44;11.70;87.60
48579;DHT22;34357;51.948;6.132;2023-03-23T03:17:25;11.60;87.70
48579;DHT22;34357;51.948;6.132;2023-03-23T03:20:02;11.60;87.80
48579;DHT22;34357;51.948;6.132;2023-03-23T03:22:33;11.60;88.00
48579;DHT22;34357;51.948;6.132;2023-03-23T03:25:04;11.70;87.40
48579;DHT22;34357;51.948;6.132;2023-03-23T03:27:31;11.80;87.10
48579;DHT22;34357;51.948;6.132;2023-03-23T03:30:13;11.80;86.70
48579;DHT22;34357;51.948;6.132;2023-03-23T03:32:47;11.80;86.80
48579;DHT22;34357;51.948;6.132;2023-03-23T03:35:15;11.80;86.60
48579;DHT22;34357;51.948;6.132;2023-03-23T03:37:41;11.90;86.10
48579;DHT22;34357;51.948;6.132;2023-03-23T03:40:10;11.90;86.40
48579;DHT22;34357;51.948;6.132;2023-03-23T03:42:40;11.90;86.30
48579;DHT22;34357;51.948;6.132;2023-03-23T03:45:09;11.80;86.50
48579;DHT22;34357;51.948;6.132;2023-03-23T03:47:35;11.80;86.50
48579;DHT22;34357;51.948;6.132;2023-03-23T03:50:02;11.80;86.80
48579;DHT22;34357;51.948;6.132;2023-03-23T03:52:28;11.80;86.90
48579;DHT22;34357;51.948;6.132;2023-03-23T03:54:54;11.90;86.60
48579;DHT22;34357;51.948;6.132;2023-03-23T03:57:21;11.90;86.70
48579;DHT22;34357;51.948;6.132;2023-03-23T04:00:07;11.90;86.40
48579;DHT22;34357;51.948;6.132;2023-03-23T04:02:41;11.90;86.30
48579;DHT22;34357;51.948;6.132;2023-03-23T04:05:08;11.90;86.30
48579;DHT22;34357;51.948;6.132;2023-03-23T04:07:36;11.90;86.30
48579;DHT22;34357;51.948;6.132;2023-03-23T04:10:08;11.90;85.90
48579;DHT22;34357;51.948;6.132;2023-03-23T04:12:36;12.00;85.50
48579;DHT22;34357;51.948;6.132;2023-03-23T04:15:20;12.00;84.70
48579;DHT22;34357;51.948;6.132;2023-03-23T04:17:47;12.10;84.40
48579;DHT22;34357;51.948;6.132;2023-03-23T04:20:13;12.10;84.60
48579;DHT22;34357;51.948;6.132;2023-03-23T04:22:48;12.20;84.50
48579;DHT22;34357;51.948;6.132;2023-03-23T04:25:19;12.20;84.70
48579;DHT22;34357;51.948;6.132;2023-03-23T04:27:51;12.20;84.70
48579;DHT22;34357;51.948;6.132;2023-03-23T04:30:22;12.10;85.30
48579;DHT22;34357;51.948;6.132;2023-03-23T04:33:00;12.10;85.50
48579;DHT22;34357;51.948;6.132;2023-03-23T04:35:28;12.10;85.70
48579;DHT22;34357;51.948;6.132;2023-03-23T04:38:15;12.00;85.90
48579;DHT22;34357;51.948;6.132;2023-03-23T04:40:44;11.90;86.20
48579;DHT22;34357;51.948;6.132;2023-03-23T04:43:25;11.90;86.40
48579;DHT22;34357;51.948;6.132;2023-03-23T04:46:10;11.90;86.50
48579;DHT22;34357;51.948;6.132;2023-03-23T04:48:37;12.00;86.10
48579;DHT22;34357;51.948;6.132;2023-03-23T04:51:13;12.00;85.80
48579;DHT22;34357;51.948;6.132;2023-03-23T04:53:40;12.00;85.70
48579;DHT22;34357;51.948;6.132;2023-03-23T04:56:07;12.00;85.90
48579;DHT22;34357;51.948;6.132;2023-03-23T04:58:39;12.00;85.60
48579;DHT22;34357;51.948;6.132;2023-03-23T05:01:17;12.00;85.60
48579;DHT22;34357;51.948;6.132;2023-03-23T05:04:06;12.00;85.40
48579;DHT22;34357;51.948;6.132;2023-03-23T05:06:33;12.00;85.20
48579;DHT22;34357;51.948;6.132;2023-03-23T05:09:03;12.10;84.70
48579;DHT22;34357;51.948;6.132;2023-03-23T05:11:30;12.20;84.40
48579;DHT22;34357;51.948;6.132;2023-03-23T05:13:56;12.20;84.50
48579;DHT22;34357;51.948;6.132;2023-03-23T05:16:22;12.10;84.50
48579;DHT22;34357;51.948;6.132;2023-03-23T05:18:48;12.10;84.30
48579;DHT22;34357;51.948;6.132;2023-03-23T05:21:16;12.10;84.50
48579;DHT22;34357;51.948;6.132;2023-03-23T05:23:47;12.00;84.80
48579;DHT22;34357;51.948;6.132;2023-03-23T05:26:20;12.00;84.20
48579;DHT22;34357;51.948;6.132;2023-03-23T05:28:47;12.00;84.10
48579;DHT22;34357;51.948;6.132;2023-03-23T05:31:22;12.00;84.00
48579;DHT22;34357;51.948;6.132;2023-03-23T05:33:50;12.00;83.70
48579;DHT22;34357;51.948;6.132;2023-03-23T05:36:31;12.00;83.90
48579;DHT22;34357;51.948;6.132;2023-03-23T05:39:15;12.00;83.70
48579;DHT22;34357;51.948;6.132;2023-03-23T05:42:03;12.10;83.30
48579;DHT22;34357;51.948;6.132;2023-03-23T05:44:40;12.10;82.60
48579;DHT22;34357;51.948;6.132;2023-03-23T05:47:08;12.10;82.60
48579;DHT22;34357;51.948;6.132;2023-03-23T05:49:37;12.00;83.00
48579;DHT22;34357;51.948;6.132;2023-03-23T05:52:06;12.00;82.60
48579;DHT22;34357;51.948;6.132;2023-03-23T05:54:31;12.00;83.00
48579;DHT22;34357;51.948;6.132;2023-03-23T05:56:57;12.00;82.80
48579;DHT22;34357;51.948;6.132;2023-03-23T05:59:52;12.10;82.40
48579;DHT22;34357;51.948;6.132;2023-03-23T06:02:24;12.10;82.30
48579;DHT22;34357;51.948;6.132;2023-03-23T06:04:52;12.10;82.70
48579;DHT22;34357;51.948;6.132;2023-03-23T06:07:27;12.00;82.60
48579;DHT22;34357;51.948;6.132;2023-03-23T06:09:58;12.10;82.10
48579;DHT22;34357;51.948;6.132;2023-03-23T06:12:24;12.10;81.80
48579;DHT22;34357;51.948;6.132;2023-03-23T06:15:09;12.10;82.10
48579;DHT22;34357;51.948;6.132;2023-03-23T06:18:07;12.20;81.90
48579;DHT22;34357;51.948;6.132;2023-03-23T06:20:40;12.20;81.90
48579;DHT22;34357;51.948;6.132;2023-03-23T06:23:35;12.20;82.00
48579;DHT22;34357;51.948;6.132;2023-03-23T06:26:05;12.20;82.20
48579;DHT22;34357;51.948;6.132;2023-03-23T06:28:32;12.20;82.50
48579;DHT22;34357;51.948;6.132;2023-03-23T06:31:03;12.20;82.50
48579;DHT22;34357;51.948;6.132;2023-03-23T06:33:36;12.20;82.50
48579;DHT22;34357;51.948;6.132;2023-03-23T06:36:19;12.20;82.10
48579;DHT22;34357;51.948;6.132;2023-03-23T06:39:07;12.20;82.00
48579;DHT22;34357;51.948;6.132;2023-03-23T06:41:47;12.40;82.00
48579;DHT22;34357;51.948;6.132;2023-03-23T06:44:13;12.40;81.10
48579;DHT22;34357;51.948;6.132;2023-03-23T06:46:41;12.40;81.30
48579;DHT22;34357;51.948;6.132;2023-03-23T06:49:17;12.40;81.60
48579;DHT22;34357;51.948;6.132;2023-03-23T06:51:50;12.40;81.10
48579;DHT22;34357;51.948;6.132;2023-03-23T06:54:16;12.40;81.20
48579;DHT22;34357;51.948;6.132;2023-03-23T06:56:43;12.40;81.60
48579;DHT22;34357;51.948;6.132;2023-03-23T06:59:09;12.40;81.30
48579;DHT22;34357;51.948;6.132;2023-03-23T07:01:37;12.40;81.50
48579;DHT22;34357;51.948;6.132;2023-03-23T07:04:03;12.40;81.50
48579;DHT22;34357;51.948;6.132;2023-03-23T07:06:42;12.40;81.20
48579;DHT22;34357;51.948;6.132;2023-03-23T07:09:08;12.40;81.40
48579;DHT22;34357;51.948;6.132;2023-03-23T07:11:34;12.50;81.60
48579;DHT22;34357;51.948;6.132;2023-03-23T07:14:09;12.40;82.00
48579;DHT22;34357;51.948;6.132;2023-03-23T07:16:35;12.40;82.10
48579;DHT22;34357;51.948;6.132;2023-03-23T07:19:02;12.40;82.60
48579;DHT22;34357;51.948;6.132;2023-03-23T07:21:27;12.40;82.70
48579;DHT22;34357;51.948;6.132;2023-03-23T07:23:53;12.30;83.00
48579;DHT22;34357;51.948;6.132;2023-03-23T07:26:40;12.30;83.40
48579;DHT22;34357;51.948;6.132;2023-03-23T07:29:08;12.20;83.90
48579;DHT22;34357;51.948;6.132;2023-03-23T07:31:40;12.10;84.40
48579;DHT22;34357;51.948;6.132;2023-03-23T07:34:06;12.20;84.40
48579;DHT22;34357;51.948;6.132;2023-03-23T07:36:59;12.10;84.90
48579;DHT22;34357;51.948;6.132;2023-03-23T07:39:27;12.10;85.10
48579;DHT22;34357;51.948;6.132;2023-03-23T07:41:56;12.00;84.90
48579;DHT22;34357;51.948;6.132;2023-03-23T07:44:34;12.00;85.00
48579;DHT22;34357;51.948;6.132;2023-03-23T07:47:06;12.00;85.40
48579;DHT22;34357;51.948;6.132;2023-03-23T07:49:34;11.90;85.50
48579;DHT22;34357;51.948;6.132;2023-03-23T07:52:12;11.60;85.50
48579;DHT22;34357;51.948;6.132;2023-03-23T07:54:38;11.60;86.00
48579;DHT22;34357;51.948;6.132;2023-03-23T07:57:18;11.70;86.30
48579;DHT22;34357;51.948;6.132;2023-03-23T07:59:49;11.70;85.90
48579;DHT22;34357;51.948;6.132;2023-03-23T08:02:16;11.70;86.40
48579;DHT22;34357;51.948;6.132;2023-03-23T08:04:42;11.70;86.60
48579;DHT22;34357;51.948;6.132;2023-03-23T08:07:14;11.70;86.80
48579;DHT22;34357;51.948;6.132;2023-03-23T08:09:50;11.70;87.00
48579;DHT22;34357;51.948;6.132;2023-03-23T08:12:28;11.70;87.00
48579;DHT22;34357;51.948;6.132;2023-03-23T08:15:13;11.60;87.10
48579;DHT22;34357;51.948;6.132;2023-03-23T08:18:06;11.70;87.50
48579;DHT22;34357;51.948;6.132;2023-03-23T08:20:44;11.60;87.60
48579;DHT22;34357;51.948;6.132;2023-03-23T08:23:21;11.60;87.80
48579;DHT22;34357;51.948;6.132;2023-03-23T08:26:13;11.60;88.00
48579;DHT22;34357;51.948;6.132;2023-03-23T08:29:00;11.60;88.10
48579;DHT22;34357;51.948;6.132;2023-03-23T08:31:45;11.70;88.40
48579;DHT22;34357;51.948;6.132;2023-03-23T08:34:43;11.70;88.10
48579;DHT22;34357;51.948;6.132;2023-03-23T08:37:38;11.80;87.50
48579;DHT22;34357;51.948;6.132;2023-03-23T08:40:33;11.90;87.30
48579;DHT22;34357;51.948;6.132;2023-03-23T08:43:20;11.90;86.90
48579;DHT22;34357;51.948;6.132;2023-03-23T08:45:55;11.90;86.90
48579;DHT22;34357;51.948;6.132;2023-03-23T08:48:58;12.00;86.20
48579;DHT22;34357;51.948;6.132;2023-03-23T08:51:47;11.90;85.90
48579;DHT22;34357;51.948;6.132;2023-03-23T08:54:30;12.00;85.40
48579;DHT22;34357;51.948;6.132;2023-03-23T08:57:15;12.10;84.70
48579;DHT22;34357;51.948;6.132;2023-03-23T09:00:00;12.20;84.80
48579;DHT22;34357;51.948;6.132;2023-03-23T09:03:14;12.20;83.60
48579;DHT22;34357;51.948;6.132;2023-03-23T09:06:10;12.20;83.00
48579;DHT22;34357;51.948;6.132;2023-03-23T09:08:44;12.20;82.60
48579;DHT22;34357;51.948;6.132;2023-03-23T09:11:11;12.10;82.30
48579;DHT22;34357;51.948;6.132;2023-03-23T09:13:38;12.10;82.80
48579;DHT22;34357;51.948;6.132;2023-03-23T09:16:05;12.10;82.60
48579;DHT22;34357;51.948;6.132;2023-03-23T09:18:32;12.20;82.80
48579;DHT22;34357;51.948;6.132;2023-03-23T09:20:59;12.20;81.40
48579;DHT22;34357;51.948;6.132;2023-03-23T09:23:26;12.10;81.30
48579;DHT22;34357;51.948;6.132;2023-03-23T09:25:52;12.00;81.20
48579;DHT22;34357;51.948;6.132;2023-03-23T09:28:18;12.10;80.80
48579;DHT22;34357;51.948;6.132;2023-03-23T09:30:44;12.20;80.40
48579;DHT22;34357;51.948;6.132;2023-03-23T09:33:11;12.30;80.30
48579;DHT22;34357;51.948;6.132;2023-03-23T09:35:37;12.20;79.80
48579;DHT22;34357;51.948;6.132;2023-03-23T09:38:05;12.20;80.00
48579;DHT22;34357;51.948;6.132;2023-03-23T09:43:59;12.30;80.30
48579;DHT22;34357;51.948;6.132;2023-03-23T09:52:04;12.70;79.60
48579;DHT22;34357;51.948;6.132;2023-03-23T09:54:42;12.80;78.90
48579;DHT22;34357;51.948;6.132;2023-03-23T10:02:49;13.80;75.90
48579;DHT22;34357;51.948;6.132;2023-03-23T10:05:31;13.90;75.90
48579;DHT22;34357;51.948;6.132;2023-03-23T10:07:59;14.00;75.50
48579;DHT22;34357;51.948;6.132;2023-03-23T10:10:39;14.00;74.60
48579;DHT22;34357;51.948;6.132;2023-03-23T10:13:31;14.10;75.60
48579;DHT22;34357;51.948;6.132;2023-03-23T10:15:58;14.40;74.80
48579;DHT22;34357;51.948;6.132;2023-03-23T10:18:30;14.40;74.10
48579;DHT22;34357;51.948;6.132;2023-03-23T10:20:59;14.40;73.00
48579;DHT22;34357;51.948;6.132;2023-03-23T10:28:47;14.50;71.90
48579;DHT22;34357;51.948;6.132;2023-03-23T10:31:21;14.40;71.60
48579;DHT22;34357;51.948;6.132;2023-03-23T10:33:51;14.50;70.80
48579;DHT22;34357;51.948;6.132;2023-03-23T10:36:29;14.70;70.80
48579;DHT22;34357;51.948;6.132;2023-03-23T10:39:09;14.70;70.80
48579;DHT22;34357;51.948;6.132;2023-03-23T10:41:36;14.70;70.90
48579;DHT22;34357;51.948;6.132;2023-03-23T10:44:15;14.80;70.60
48579;DHT22;34357;51.948;6.132;2023-03-23T10:49:40;14.70;69.40
48579;DHT22;34357;51.948;6.132;2023-03-23T10:52:36;14.60;70.40
48579;DHT22;34357;51.948;6.132;2023-03-23T10:55:16;14.80;70.70
48579;DHT22;34357;51.948;6.132;2023-03-23T10:57:44;15.10;68.70
48579;DHT22;34357;51.948;6.132;2023-03-23T11:03:00;15.20;66.90
48579;DHT22;34357;51.948;6.132;2023-03-23T11:05:40;15.40;67.10
48579;DHT22;34357;51.948;6.132;2023-03-23T11:08:21;15.40;66.30
48579;DHT22;34357;51.948;6.132;2023-03-23T11:10:54;15.50;64.60
48579;DHT22;34357;51.948;6.132;2023-03-23T11:13:22;15.20;65.60
48579;DHT22;34357;51.948;6.132;2023-03-23T11:15:49;14.70;66.30
48579;DHT22;34357;51.948;6.132;2023-03-23T11:18:38;14.50;67.10
48579;DHT22;34357;51.948;6.132;2023-03-23T11:21:06;14.60;68.60
48579;DHT22;34357;51.948;6.132;2023-03-23T11:23:34;14.40;67.40
48579;DHT22;34357;51.948;6.132;2023-03-23T11:29:04;15.00;66.20
48579;DHT22;34357;51.948;6.132;2023-03-23T11:31:36;15.40;64.50
48579;DHT22;34357;51.948;6.132;2023-03-23T11:36:47;15.40;66.30
48579;DHT22;34357;51.948;6.132;2023-03-23T11:39:34;15.40;64.70
48579;DHT22;34357;51.948;6.132;2023-03-23T11:45:39;15.10;67.30
48579;DHT22;34357;51.948;6.132;2023-03-23T11:53:50;15.50;66.80
48579;DHT22;34357;51.948;6.132;2023-03-23T11:58:47;16.30;64.20
48579;DHT22;34357;51.948;6.132;2023-03-23T12:01:36;15.90;62.80
48579;DHT22;34357;51.948;6.132;2023-03-23T12:19:55;15.90;66.00
48579;DHT22;34357;51.948;6.132;2023-03-23T12:22:44;15.80;66.00
48579;DHT22;34357;51.948;6.132;2023-03-23T12:28:18;16.20;65.80
48579;DHT22;34357;51.948;6.132;2023-03-23T12:33:43;16.00;65.10
48579;DHT22;34357;51.948;6.132;2023-03-23T12:36:34;16.00;65.30
48579;DHT22;34357;51.948;6.132;2023-03-23T12:42:35;15.90;65.40
48579;DHT22;34357;51.948;6.132;2023-03-23T12:45:25;16.00;64.70
48579;DHT22;34357;51.948;6.132;2023-03-23T12:48:11;15.60;65.90
48579;DHT22;34357;51.948;6.132;2023-03-23T12:51:04;16.00;65.40
48579;DHT22;34357;51.948;6.132;2023-03-23T12:59:45;15.80;64.60
48579;DHT22;34357;51.948;6.132;2023-03-23T13:05:03;15.80;65.20
48579;DHT22;34357;51.948;6.132;2023-03-23T13:07:37;15.90;65.70
48579;DHT22;34357;51.948;6.132;2023-03-23T13:10:18;15.80;65.10
48579;DHT22;34357;51.948;6.132;2023-03-23T13:12:47;15.90;65.60
48579;DHT22;34357;51.948;6.132;2023-03-23T13:15:42;16.20;65.10
48579;DHT22;34357;51.948;6.132;2023-03-23T13:21:02;16.60;63.50
48579;DHT22;34357;51.948;6.132;2023-03-23T13:23:34;16.50;63.50
48579;DHT22;34357;51.948;6.132;2023-03-23T13:26:08;16.50;62.90
48579;DHT22;34357;51.948;6.132;2023-03-23T13:31:32;15.90;65.20
48579;DHT22;34357;51.948;6.132;2023-03-23T13:36:43;15.10;66.10
48579;DHT22;34357;51.948;6.132;2023-03-23T13:39:21;14.80;69.00
48579;DHT22;34357;51.948;6.132;2023-03-23T13:49:57;13.10;81.20
48579;DHT22;34357;51.948;6.132;2023-03-23T13:55:50;12.90;83.00
48579;DHT22;34357;51.948;6.132;2023-03-23T14:00:36;13.10;84.10
48579;DHT22;34357;51.948;6.132;2023-03-23T14:03:35;13.30;83.70
48579;DHT22;34357;51.948;6.132;2023-03-23T14:06:07;13.40;82.30
48579;DHT22;34357;51.948;6.132;2023-03-23T14:08:54;13.60;81.30
48579;DHT22;34357;51.948;6.132;2023-03-23T14:11:24;13.90;81.70
48579;DHT22;34357;51.948;6.132;2023-03-23T14:14:03;13.90;79.20
48579;DHT22;34357;51.948;6.132;2023-03-23T14:16:40;14.00;79.10
48579;DHT22;34357;51.948;6.132;2023-03-23T14:19:21;14.00;77.80
48579;DHT22;34357;51.948;6.132;2023-03-23T14:24:22;14.00;78.20
48579;DHT22;34357;51.948;6.132;2023-03-23T14:26:52;14.10;78.30
48579;DHT22;34357;51.948;6.132;2023-03-23T14:29:20;14.20;76.90
48579;DHT22;34357;51.948;6.132;2023-03-23T14:31:57;14.10;77.50
48579;DHT22;34357;51.948;6.132;2023-03-23T14:34:26;14.00;78.30
48579;DHT22;34357;51.948;6.132;2023-03-23T14:36:54;13.90;79.00
48579;DHT22;34357;51.948;6.132;2023-03-23T14:39:29;13.90;78.90
48579;DHT22;34357;51.948;6.132;2023-03-23T14:42:02;13.90;79.40
48579;DHT22;34357;51.948;6.132;2023-03-23T14:44:31;13.70;79.40
48579;DHT22;34357;51.948;6.132;2023-03-23T14:47:02;13.70;78.10
48579;DHT22;34357;51.948;6.132;2023-03-23T14:49:34;13.70;78.30
48579;DHT22;34357;51.948;6.132;2023-03-23T14:52:12;13.70;78.50
48579;DHT22;34357;51.948;6.132;2023-03-23T14:54:39;13.70;77.60
48579;DHT22;34357;51.948;6.132;2023-03-23T14:57:26;13.90;78.60
48579;DHT22;34357;51.948;6.132;2023-03-23T14:59:53;14.10;79.40
48579;DHT22;34357;51.948;6.132;2023-03-23T15:02:31;14.20;78.00
48579;DHT22;34357;51.948;6.132;2023-03-23T15:05:02;14.20;76.50
48579;DHT22;34357;51.948;6.132;2023-03-23T15:07:33;14.30;78.20
48579;DHT22;34357;51.948;6.132;2023-03-23T15:09:59;14.40;75.70
48579;DHT22;34357;51.948;6.132;2023-03-23T15:12:28;14.40;75.30
48579;DHT22;34357;51.948;6.132;2023-03-23T15:14:59;14.50;76.00
48579;DHT22;34357;51.948;6.132;2023-03-23T15:17:31;14.50;74.50
48579;DHT22;34357;51.948;6.132;2023-03-23T15:20:08;14.60;75.80
48579;DHT22;34357;51.948;6.132;2023-03-23T15:22:34;14.70;75.00
48579;DHT22;34357;51.948;6.132;2023-03-23T15:25:22;14.60;74.60
48579;DHT22;34357;51.948;6.132;2023-03-23T15:27:57;14.70;74.40
48579;DHT22;34357;51.948;6.132;2023-03-23T15:33:09;14.70;73.80
48579;DHT22;34357;51.948;6.132;2023-03-23T15:35:44;14.80;75.50
48579;DHT22;34357;51.948;6.132;2023-03-23T15:38:28;14.80;74.80
48579;DHT22;34357;51.948;6.132;2023-03-23T15:40:58;14.90;74.60
48579;DHT22;34357;51.948;6.132;2023-03-23T15:43:31;14.90;74.80
48579;DHT22;34357;51.948;6.132;2023-03-23T15:46:03;14.80;73.50
48579;DHT22;34357;51.948;6.132;2023-03-23T15:48:54;14.80;74.60
48579;DHT22;34357;51.948;6.132;2023-03-23T15:51:19;14.70;75.10
48579;DHT22;34357;51.948;6.132;2023-03-23T15:53:45;14.70;74.50
48579;DHT22;34357;51.948;6.132;2023-03-23T15:56:13;14.60;74.90
48579;DHT22;34357;51.948;6.132;2023-03-23T15:58:39;14.70;75.00
48579;DHT22;34357;51.948;6.132;2023-03-23T16:01:23;14.80;75.20
48579;DHT22;34357;51.948;6.132;2023-03-23T16:04:16;14.90;74.60
48579;DHT22;34357;51.948;6.132;2023-03-23T16:06:44;14.80;74.50
48579;DHT22;34357;51.948;6.132;2023-03-23T16:09:18;14.90;74.40
48579;DHT22;34357;51.948;6.132;2023-03-23T16:11:44;14.80;74.60
48579;DHT22;34357;51.948;6.132;2023-03-23T16:14:11;14.70;73.60
48579;DHT22;34357;51.948;6.132;2023-03-23T16:16:48;14.60;74.00
48579;DHT22;34357;51.948;6.132;2023-03-23T16:19:15;14.50;73.00
48579;DHT22;34357;51.948;6.132;2023-03-23T16:21:41;14.50;74.10
48579;DHT22;34357;51.948;6.132;2023-03-23T16:24:08;14.60;72.70
48579;DHT22;34357;51.948;6.132;2023-03-23T16:26:35;14.60;72.40
48579;DHT22;34357;51.948;6.132;2023-03-23T16:29:01;14.60;73.40
48579;DHT22;34357;51.948;6.132;2023-03-23T16:31:30;14.50;73.40
48579;DHT22;34357;51.948;6.132;2023-03-23T16:33:56;14.40;74.10
48579;DHT22;34357;51.948;6.132;2023-03-23T16:36:22;14.40;75.00
48579;DHT22;34357;51.948;6.132;2023-03-23T16:38:47;14.40;74.90
48579;DHT22;34357;51.948;6.132;2023-03-23T16:41:13;14.40;75.60
48579;DHT22;34357;51.948;6.132;2023-03-23T16:43:39;14.40;75.90
48579;DHT22;34357;51.948;6.132;2023-03-23T16:46:05;14.40;75.90
48579;DHT22;34357;51.948;6.132;2023-03-23T16:48:31;14.40;75.80
48579;DHT22;34357;51.948;6.132;2023-03-23T16:50:56;14.50;76.40
48579;DHT22;34357;51.948;6.132;2023-03-23T16:53:22;14.40;76.50
48579;DHT22;34357;51.948;6.132;2023-03-23T16:55:50;14.30;76.90
48579;DHT22;34357;51.948;6.132;2023-03-23T16:58:16;14.10;77.30
48579;DHT22;34357;51.948;6.132;2023-03-23T17:00:43;13.90;78.10
48579;DHT22;34357;51.948;6.132;2023-03-23T17:03:09;13.80;78.50
48579;DHT22;34357;51.948;6.132;2023-03-23T17:05:36;13.70;79.10
48579;DHT22;34357;51.948;6.132;2023-03-23T17:08:02;13.60;79.40
48579;DHT22;34357;51.948;6.132;2023-03-23T17:10:28;13.60;80.00
48579;DHT22;34357;51.948;6.132;2023-03-23T17:12:54;13.50;80.50
48579;DHT22;34357;51.948;6.132;2023-03-23T17:15:20;13.40;81.00
48579;DHT22;34357;51.948;6.132;2023-03-23T17:17:48;13.40;81.30
48579;DHT22;34357;51.948;6.132;2023-03-23T17:20:14;13.30;81.60
48579;DHT22;34357;51.948;6.132;2023-03-23T17:22:41;13.30;82.00
48579;DHT22;34357;51.948;6.132;2023-03-23T17:25:07;13.20;82.00
48579;DHT22;34357;51.948;6.132;2023-03-23T17:27:34;13.20;82.20
48579;DHT22;34357;51.948;6.132;2023-03-23T17:30:00;13.20;82.20
48579;DHT22;34357;51.948;6.132;2023-03-23T17:32:26;13.10;82.30
48579;DHT22;34357;51.948;6.132;2023-03-23T17:34:52;13.10;82.40
48579;DHT22;34357;51.948;6.132;2023-03-23T17:37:19;13.10;82.30
48579;DHT22;34357;51.948;6.132;2023-03-23T17:39:45;13.10;82.60
48579;DHT22;34357;51.948;6.132;2023-03-23T17:42:11;13.20;82.50
48579;DHT22;34357;51.948;6.132;2023-03-23T17:44:37;13.20;82.50
48579;DHT22;34357;51.948;6.132;2023-03-23T17:47:03;13.10;82.60
48579;DHT22;34357;51.948;6.132;2023-03-23T17:49:29;13.20;82.50
48579;DHT22;34357;51.948;6.132;2023-03-23T17:51:58;13.20;82.60
48579;DHT22;34357;51.948;6.132;2023-03-23T17:54:25;13.10;82.50
48579;DHT22;34357;51.948;6.132;2023-03-23T17:56:54;13.00;82.70
48579;DHT22;34357;51.948;6.132;2023-03-23T17:59:23;13.00;82.90
48579;DHT22;34357;51.948;6.132;2023-03-23T18:01:49;13.00;82.50
48579;DHT22;34357;51.948;6.132;2023-03-23T18:04:15;12.90;82.60
48579;DHT22;34357;51.948;6.132;2023-03-23T18:06:41;12.90;82.70
48579;DHT22;34357;51.948;6.132;2023-03-23T18:09:07;13.00;82.60
48579;DHT22;34357;51.948;6.132;2023-03-23T18:11:33;13.00;82.30
48579;DHT22;34357;51.948;6.132;2023-03-23T18:13:59;13.00;82.20